Time;durP1;ratioP1;P1;durP2;ratioP2;P2;SDS_P1;SDS_P2;PMS_P1;PMS_P2;Temp;Humidity;BMP_temperature;BMP_pressure;BME280_temperature;BME280_humidity;BME280_pressure;Samples;Min_cycle;Max_cycle;Signal;HPM_P1;HPM_P2
2021/12/29 00:01:17;;;;;;;1.17;1.08;;;16.20;24.50;;;;;;5057152;28;20205;-52
2021/12/29 00:03:45;;;;;;;1.77;0.98;;;16.20;24.50;;;;;;5057161;28;20213;-52
2021/12/29 00:06:12;;;;;;;2.05;1.00;;;16.20;24.50;;;;;;5057294;28;20232;-53
2021/12/29 00:08:39;;;;;;;1.30;0.95;;;16.20;24.50;;;;;;5056009;28;20208;-52
2021/12/29 00:11:06;;;;;;;1.88;0.90;;;16.20;24.50;;;;;;5056774;28;20216;-53
2021/12/29 00:13:33;;;;;;;1.15;0.88;;;16.20;24.50;;;;;;5056362;28;20219;-52
2021/12/29 00:16:01;;;;;;;1.63;1.00;;;16.20;24.50;;;;;;5056661;28;20517;-52
2021/12/29 00:18:32;;;;;;;1.45;1.00;;;16.20;24.60;;;;;;5056811;28;20205;-52
2021/12/29 00:21:01;;;;;;;1.48;1.02;;;16.20;24.60;;;;;;5056265;28;20205;-52
2021/12/29 00:23:29;;;;;;;1.50;0.88;;;16.20;24.50;;;;;;5056900;28;20209;-52
2021/12/29 00:25:56;;;;;;;1.15;1.00;;;16.10;24.50;;;;;;5056930;28;20216;-52
2021/12/29 00:28:23;;;;;;;1.45;0.95;;;16.20;24.60;;;;;;5057084;28;20205;-52
2021/12/29 00:30:51;;;;;;;1.42;1.00;;;16.10;24.50;;;;;;5057754;28;20480;-53
2021/12/29 00:33:18;;;;;;;1.63;1.00;;;16.10;24.60;;;;;;5056909;28;20451;-52
2021/12/29 00:35:47;;;;;;;0.85;0.82;;;16.10;24.50;;;;;;5056200;28;20193;-52
2021/12/29 00:38:15;;;;;;;1.33;0.90;;;16.10;24.50;;;;;;5057025;28;20193;-52
2021/12/29 00:40:43;;;;;;;0.80;0.80;;;16.10;24.50;;;;;;5057026;28;20205;-52
2021/12/29 00:43:10;;;;;;;1.00;0.77;;;16.10;24.50;;;;;;5057181;28;20216;-52
2021/12/29 00:45:40;;;;;;;1.00;0.70;;;16.10;24.60;;;;;;5057294;28;20209;-52
2021/12/29 00:48:11;;;;;;;1.88;0.73;;;16.10;24.50;;;;;;5056783;28;20243;-52
2021/12/29 00:50:39;;;;;;;0.95;0.70;;;16.10;24.50;;;;;;5056792;28;20209;-52
2021/12/29 00:53:08;;;;;;;1.02;0.88;;;16.10;24.60;;;;;;5056980;28;20205;-52
2021/12/29 00:55:36;;;;;;;0.77;0.70;;;16.10;24.60;;;;;;5057168;28;20603;-52
2021/12/29 00:58:07;;;;;;;0.90;0.70;;;16.10;24.60;;;;;;5056945;28;20208;-52
2021/12/29 01:00:37;;;;;;;1.08;0.80;;;16.10;24.60;;;;;;5057224;28;20547;-52
2021/12/29 01:03:04;;;;;;;0.70;0.70;;;16.10;24.60;;;;;;5056442;28;20201;-52
2021/12/29 01:05:31;;;;;;;1.02;0.60;;;16.00;24.50;;;;;;5056833;28;20223;-52
2021/12/29 01:07:58;;;;;;;1.23;0.70;;;16.00;24.50;;;;;;5056371;28;20229;-52
2021/12/29 01:10:28;;;;;;;0.85;0.70;;;16.00;24.60;;;;;;5056985;28;20212;-52
2021/12/29 01:12:59;;;;;;;1.15;0.60;;;16.00;24.60;;;;;;5057246;28;20525;-52
2021/12/29 01:15:32;;;;;;;0.82;0.80;;;16.00;24.50;;;;;;5056766;28;20204;-52
2021/12/29 01:18:01;;;;;;;1.00;0.63;;;16.00;24.60;;;;;;5056529;28;20511;-52
2021/12/29 01:20:29;;;;;;;1.00;0.80;;;16.00;24.60;;;;;;5056470;28;20201;-53
2021/12/29 01:22:58;;;;;;;1.00;0.80;;;16.00;24.60;;;;;;5056349;28;20205;-53
2021/12/29 01:25:28;;;;;;;0.80;0.70;;;16.00;24.60;;;;;;5056769;28;20243;-52
2021/12/29 01:27:56;;;;;;;0.60;0.60;;;16.00;24.60;;;;;;5060825;28;20225;-52
2021/12/29 01:30:23;;;;;;;0.82;0.68;;;15.90;24.60;;;;;;5060070;28;20201;-52
2021/12/29 01:32:50;;;;;;;0.60;0.50;;;15.90;24.50;;;;;;5060660;28;20204;-52
2021/12/29 01:35:17;;;;;;;0.90;0.70;;;15.90;24.50;;;;;;5060350;28;20232;-52
2021/12/29 01:37:45;;;;;;;1.05;0.70;;;15.90;24.50;;;;;;5060401;28;20200;-52
2021/12/29 01:40:15;;;;;;;0.75;0.70;;;15.90;24.60;;;;;;5060671;28;20485;-52
2021/12/29 01:42:44;;;;;;;0.63;0.55;;;15.90;24.60;;;;;;5060179;28;20209;-53
2021/12/29 01:45:12;;;;;;;0.50;0.50;;;15.90;24.60;;;;;;5059996;28;20227;-52
2021/12/29 01:47:39;;;;;;;0.65;0.60;;;15.90;24.60;;;;;;5059290;28;20228;-52
2021/12/29 01:50:10;;;;;;;0.63;0.52;;;15.90;24.50;;;;;;5059930;28;20219;-52
2021/12/29 01:52:39;;;;;;;0.50;0.50;;;15.90;24.60;;;;;;5059698;28;20593;-52
2021/12/29 01:55:09;;;;;;;1.13;0.60;;;15.80;24.60;;;;;;5059959;28;20573;-53
2021/12/29 01:57:36;;;;;;;0.98;0.60;;;15.80;24.60;;;;;;5059297;28;20639;-53
2021/12/29 02:00:08;;;;;;;0.68;0.40;;;15.80;24.60;;;;;;5059122;28;20596;-52
2021/12/29 02:02:35;;;;;;;0.75;0.47;;;15.80;24.60;;;;;;5060290;28;20205;-52
2021/12/29 02:05:03;;;;;;;0.70;0.60;;;15.80;24.60;;;;;;5059954;28;20283;-52
2021/12/29 02:07:30;;;;;;;0.82;0.55;;;15.80;24.60;;;;;;5059832;28;20639;-52
2021/12/29 02:09:57;;;;;;;0.95;0.60;;;15.80;24.60;;;;;;5059835;28;20588;-52
2021/12/29 02:12:24;;;;;;;0.50;0.50;;;15.80;24.60;;;;;;5060310;28;20472;-52
2021/12/29 02:14:51;;;;;;;0.60;0.50;;;15.80;24.60;;;;;;5059619;28;20496;-53
2021/12/29 02:17:20;;;;;;;0.50;0.50;;;15.80;24.60;;;;;;5059251;28;20202;-53
2021/12/29 02:19:48;;;;;;;0.43;0.43;;;15.80;24.60;;;;;;5059313;28;20201;-52
2021/12/29 02:22:32;;;;;;;0.82;0.55;;;15.80;24.60;;;;;;5059747;28;20235;-52
2021/12/29 02:25:19;;;;;;;1.27;0.80;;;15.80;24.60;;;;;;5058837;28;20201;-53
2021/12/29 02:27:48;;;;;;;0.50;0.50;;;15.80;24.70;;;;;;5059467;28;20229;-53
2021/12/29 02:30:17;;;;;;;0.60;0.50;;;15.80;24.70;;;;;;5059683;28;20201;-53
2021/12/29 02:32:45;;;;;;;0.50;0.50;;;15.80;24.70;;;;;;5059497;28;20216;-52
2021/12/29 02:35:15;;;;;;;0.40;0.40;;;15.70;24.60;;;;;;5059595;28;20229;-52
2021/12/29 02:37:44;;;;;;;0.60;0.40;;;15.70;24.60;;;;;;5059200;28;20201;-52
2021/12/29 02:40:12;;;;;;;0.70;0.55;;;15.70;24.60;;;;;;5059545;28;20204;-52
2021/12/29 02:42:41;;;;;;;0.90;0.50;;;15.70;24.60;;;;;;5059368;28;20205;-52
2021/12/29 02:45:11;;;;;;;0.60;0.40;;;15.70;24.60;;;;;;5058809;28;20614;-52
2021/12/29 02:47:38;;;;;;;0.45;0.45;;;15.70;24.60;;;;;;5059184;28;20225;-52
2021/12/29 02:50:06;;;;;;;0.47;0.45;;;15.70;24.70;;;;;;5059300;28;20232;-52
2021/12/29 02:52:34;;;;;;;0.30;0.30;;;15.70;24.70;;;;;;5059272;28;20209;-52
2021/12/29 02:55:02;;;;;;;0.80;0.50;;;15.70;24.70;;;;;;5058782;28;20197;-52
2021/12/29 02:57:30;;;;;;;0.60;0.40;;;15.70;24.70;;;;;;5059017;28;20208;-52
2021/12/29 02:59:57;;;;;;;0.70;0.60;;;15.70;24.70;;;;;;5058790;28;20205;-52
2021/12/29 03:02:25;;;;;;;0.52;0.40;;;15.70;24.70;;;;;;5059240;28;20205;-52
2021/12/29 03:04:53;;;;;;;0.60;0.50;;;15.70;24.70;;;;;;5058685;28;20479;-52
2021/12/29 03:07:20;;;;;;;0.40;0.40;;;15.60;24.60;;;;;;5058986;28;20225;-52
2021/12/29 03:09:47;;;;;;;0.47;0.47;;;15.60;24.70;;;;;;5058884;28;20197;-52
2021/12/29 03:12:16;;;;;;;0.73;0.40;;;15.60;24.70;;;;;;5058485;28;20479;-52
2021/12/29 03:14:52;;;;;;;0.68;0.50;;;15.60;24.70;;;;;;5058334;28;20201;-52
2021/12/29 03:17:19;;;;;;;0.30;0.30;;;15.60;24.70;;;;;;5058840;28;20201;-52
2021/12/29 03:19:46;;;;;;;0.65;0.47;;;15.60;24.70;;;;;;5058727;28;20232;-53
2021/12/29 03:22:14;;;;;;;0.50;0.40;;;15.60;24.70;;;;;;5058723;28;20215;-53
2021/12/29 03:24:41;;;;;;;0.40;0.32;;;15.60;24.70;;;;;;5058638;28;20205;-53
2021/12/29 03:27:09;;;;;;;0.55;0.40;;;15.60;24.70;;;;;;5058498;28;20224;-53
2021/12/29 03:29:37;;;;;;;0.40;0.30;;;15.60;24.70;;;;;;5058629;28;20205;-53
2021/12/29 03:32:08;;;;;;;0.63;0.50;;;15.60;24.70;;;;;;5058398;28;20212;-53
2021/12/29 03:34:35;;;;;;;0.40;0.30;;;15.60;24.70;;;;;;5058059;28;20283;-53
2021/12/29 03:37:04;;;;;;;0.38;0.38;;;15.50;24.60;;;;;;5058281;28;20209;-53
2021/12/29 03:39:37;;;;;;;0.43;0.30;;;15.50;24.60;;;;;;5058162;28;20216;-53
2021/12/29 03:42:06;;;;;;;0.43;0.40;;;15.50;24.60;;;;;;5058117;28;20451;-53
2021/12/29 03:44:33;;;;;;;0.30;0.30;;;15.50;24.60;;;;;;5057842;28;20683;-53
2021/12/29 03:47:02;;;;;;;0.68;0.35;;;15.50;24.60;;;;;;5058241;28;20213;-53
2021/12/29 03:49:29;;;;;;;0.50;0.40;;;15.50;24.70;;;;;;5057254;28;20205;-53
2021/12/29 03:51:56;;;;;;;0.65;0.45;;;15.50;24.60;;;;;;5057996;28;20205;-53
2021/12/29 03:54:23;;;;;;;0.45;0.40;;;15.50;24.70;;;;;;5057727;28;20232;-53
2021/12/29 03:56:50;;;;;;;0.35;0.35;;;15.50;24.60;;;;;;5057985;28;20205;-53
2021/12/29 03:59:17;;;;;;;0.40;0.40;;;15.50;24.70;;;;;;5057761;28;20201;-53
2021/12/29 04:01:46;;;;;;;0.30;0.30;;;15.50;24.70;;;;;;5057741;28;20279;-53
2021/12/29 04:04:15;;;;;;;0.40;0.30;;;15.50;24.70;;;;;;5057972;28;20762;-53
2021/12/29 04:06:42;;;;;;;0.32;0.30;;;15.50;24.70;;;;;;5057511;28;20197;-53
2021/12/29 04:09:09;;;;;;;0.35;0.35;;;15.40;24.60;;;;;;5056778;28;20228;-53
2021/12/29 04:11:36;;;;;;;1.05;0.40;;;15.40;24.10;;;;;;5057910;28;20255;-53
2021/12/29 04:14:03;;;;;;;0.30;0.30;;;15.40;24.60;;;;;;5057510;28;20205;-53
2021/12/29 04:16:30;;;;;;;0.77;0.40;;;15.40;24.70;;;;;;5057509;28;20280;-52
2021/12/29 04:19:14;;;;;;;0.50;0.40;;;15.40;24.70;;;;;;5057571;28;20208;-52
2021/12/29 04:21:44;;;;;;;0.38;0.35;;;15.40;24.70;;;;;;5057097;28;20488;-52
2021/12/29 04:24:12;;;;;;;0.50;0.43;;;15.40;24.70;;;;;;5057207;28;20224;-52
2021/12/29 04:26:39;;;;;;;0.30;0.30;;;15.40;24.70;;;;;;5057311;28;20600;-52
2021/12/29 04:29:07;;;;;;;0.50;0.35;;;15.40;24.70;;;;;;5057533;28;20500;-52
2021/12/29 04:31:35;;;;;;;0.35;0.30;;;15.40;24.70;;;;;;5057454;28;20639;-52
2021/12/29 04:34:02;;;;;;;0.30;0.30;;;15.40;24.70;;;;;;5056811;28;20225;-52
2021/12/29 04:36:29;;;;;;;0.30;0.30;;;15.40;24.70;;;;;;5056754;28;20201;-52
2021/12/29 04:38:58;;;;;;;0.40;0.30;;;15.40;24.70;;;;;;5057062;28;20201;-52
2021/12/29 04:41:26;;;;;;;0.32;0.32;;;15.40;24.70;;;;;;5057064;28;20319;-52
2021/12/29 04:43:53;;;;;;;0.28;0.28;;;15.40;24.70;;;;;;5056655;28;20566;-52
2021/12/29 04:46:28;;;;;;;0.50;0.30;;;15.40;24.70;;;;;;5056282;28;20205;-52
2021/12/29 04:49:00;;;;;;;0.50;0.40;;;15.30;24.60;;;;;;5056571;28;20234;-52
2021/12/29 04:51:34;;;;;;;0.43;0.40;;;15.30;24.70;;;;;;5056133;28;20205;-52
2021/12/29 04:54:04;;;;;;;0.50;0.30;;;15.30;24.70;;;;;;5056413;28;20205;-52
2021/12/29 04:56:31;;;;;;;0.40;0.30;;;15.30;24.70;;;;;;5056385;28;20204;-52
2021/12/29 04:58:58;;;;;;;0.40;0.40;;;15.30;24.70;;;;;;5056637;28;20584;-53
2021/12/29 05:01:26;;;;;;;0.40;0.28;;;15.30;24.70;;;;;;5056893;28;20205;-52
2021/12/29 05:03:54;;;;;;;0.57;0.30;;;15.30;24.60;;;;;;5056807;28;20205;-52
2021/12/29 05:09:07;;;;;;;0.40;0.30;;;15.30;24.60;;;;;;5056124;28;20223;-52
2021/12/29 05:11:34;;;;;;;0.38;0.30;;;15.30;24.70;;;;;;5056583;28;20209;-52
2021/12/29 05:14:02;;;;;;;0.40;0.30;;;15.30;24.70;;;;;;5056367;28;20205;-52
2021/12/29 05:16:29;;;;;;;0.30;0.20;;;15.20;24.70;;;;;;5055956;28;20505;-53
2021/12/29 05:18:58;;;;;;;0.47;0.40;;;15.30;24.70;;;;;;5056343;28;20208;-52
2021/12/29 05:21:26;;;;;;;0.50;0.38;;;15.20;24.70;;;;;;5056179;28;20802;-52
2021/12/29 05:23:53;;;;;;;0.35;0.30;;;15.20;24.70;;;;;;5055789;28;20250;-52
2021/12/29 05:26:22;;;;;;;0.30;0.30;;;15.20;24.70;;;;;;5056020;28;20205;-52
2021/12/29 05:28:49;;;;;;;0.47;0.47;;;15.20;24.70;;;;;;5055922;28;20235;-52
2021/12/29 05:31:17;;;;;;;0.50;0.40;;;15.20;24.70;;;;;;5056397;28;20236;-52
2021/12/29 05:33:44;;;;;;;0.40;0.30;;;15.20;24.70;;;;;;5055530;28;20628;-52
2021/12/29 05:36:11;;;;;;;0.30;0.30;;;15.20;24.70;;;;;;5055909;28;20216;-52
2021/12/29 05:38:39;;;;;;;0.20;0.20;;;15.20;24.70;;;;;;5056799;28;20216;-52
2021/12/29 05:41:06;;;;;;;0.40;0.30;;;15.20;24.70;;;;;;5056667;28;20205;-52
2021/12/29 05:43:35;;;;;;;0.32;0.30;;;15.20;24.70;;;;;;5056358;28;20215;-52
2021/12/29 05:46:02;;;;;;;0.30;0.30;;;15.20;24.70;;;;;;5056409;28;20205;-52
2021/12/29 05:48:29;;;;;;;0.60;0.40;;;15.20;24.70;;;;;;5056006;28;20221;-52
2021/12/29 05:50:56;;;;;;;0.22;0.20;;;15.20;24.70;;;;;;5056084;28;20212;-52
2021/12/29 05:53:23;;;;;;;0.35;0.30;;;15.20;24.70;;;;;;5055215;28;20241;-52
2021/12/29 05:55:51;;;;;;;0.30;0.30;;;15.20;24.70;;;;;;5055770;28;20205;-52
2021/12/29 05:58:18;;;;;;;0.35;0.30;;;15.10;24.70;;;;;;5056391;28;20204;-52
2021/12/29 06:00:47;;;;;;;0.32;0.25;;;15.10;24.70;;;;;;5056100;28;20223;-52
2021/12/29 06:03:15;;;;;;;0.30;0.30;;;15.10;24.70;;;;;;5056761;28;20206;-52
2021/12/29 06:05:42;;;;;;;0.30;0.20;;;15.10;24.70;;;;;;5055942;28;20216;-52
2021/12/29 06:08:09;;;;;;;0.32;0.30;;;15.10;24.70;;;;;;5056161;28;20236;-52
2021/12/29 06:10:37;;;;;;;0.50;0.30;;;15.10;24.70;;;;;;5056410;28;20215;-52
2021/12/29 06:13:04;;;;;;;0.38;0.32;;;15.10;24.70;;;;;;5058377;28;20607;-52
2021/12/29 06:15:31;;;;;;;0.32;0.32;;;15.10;24.70;;;;;;5059463;28;20213;-53
2021/12/29 06:18:00;;;;;;;0.20;0.20;;;15.10;24.70;;;;;;5059255;28;20216;-52
2021/12/29 06:20:27;;;;;;;0.20;0.20;;;15.10;24.70;;;;;;5058447;28;20220;-52
2021/12/29 06:22:54;;;;;;;0.20;0.20;;;15.10;24.70;;;;;;5059081;28;20209;-52
2021/12/29 06:25:22;;;;;;;0.25;0.22;;;15.00;24.70;;;;;;5059375;28;20209;-52
2021/12/29 06:27:50;;;;;;;0.40;0.40;;;15.10;24.80;;;;;;5059569;28;20215;-52
2021/12/29 06:30:18;;;;;;;0.30;0.30;;;15.10;24.80;;;;;;5059574;28;20558;-52
2021/12/29 06:32:46;;;;;;;0.30;0.30;;;15.00;24.70;;;;;;5059448;28;20234;-52
2021/12/29 06:35:15;;;;;;;0.30;0.20;;;15.00;24.70;;;;;;5058942;28;20241;-52
2021/12/29 06:37:44;;;;;;;0.20;0.20;;;15.00;24.70;;;;;;5059383;28;20588;-52
2021/12/29 06:40:12;;;;;;;0.30;0.30;;;15.10;24.80;;;;;;5059273;28;20200;-52
2021/12/29 06:42:39;;;;;;;0.30;0.20;;;15.00;24.70;;;;;;5058563;28;20216;-52
2021/12/29 06:45:08;;;;;;;0.30;0.30;;;15.00;24.70;;;;;;5058645;28;20205;-52
2021/12/29 06:47:35;;;;;;;0.32;0.22;;;15.00;24.70;;;;;;5058521;28;20200;-52
2021/12/29 06:50:03;;;;;;;0.20;0.20;;;15.00;24.70;;;;;;5058976;28;20252;-52
2021/12/29 06:52:32;;;;;;;0.20;0.20;;;15.00;24.70;;;;;;5058318;28;20205;-52
2021/12/29 06:54:59;;;;;;;0.20;0.20;;;15.00;24.80;;;;;;5058559;28;20209;-52
2021/12/29 06:57:26;;;;;;;0.20;0.20;;;15.00;24.70;;;;;;5058437;28;20205;-52
2021/12/29 06:59:53;;;;;;;0.30;0.30;;;14.90;24.70;;;;;;5058787;28;20201;-52
2021/12/29 07:02:21;;;;;;;0.30;0.30;;;15.00;24.80;;;;;;5058711;28;20205;-52
2021/12/29 07:04:48;;;;;;;0.40;0.32;;;14.90;24.80;;;;;;5058430;28;20216;-52
2021/12/29 07:07:15;;;;;;;0.20;0.20;;;15.00;24.80;;;;;;5058585;28;20205;-52
2021/12/29 07:09:44;;;;;;;0.28;0.25;;;15.00;24.80;;;;;;5058563;28;20691;-52
2021/12/29 07:12:11;;;;;;;0.20;0.20;;;14.90;24.70;;;;;;5058666;28;20716;-53
2021/12/29 07:14:39;;;;;;;0.50;0.30;;;14.90;24.70;;;;;;5057524;28;20201;-53
2021/12/29 07:17:07;;;;;;;0.38;0.30;;;14.90;24.80;;;;;;5058350;28;20316;-53
2021/12/29 07:19:34;;;;;;;0.30;0.30;;;14.90;24.80;;;;;;5058205;28;20216;-53
2021/12/29 07:22:03;;;;;;;0.80;0.30;;;14.90;25.00;;;;;;5057966;28;20197;-53
2021/12/29 07:24:31;;;;;;;1.65;0.55;;;14.90;25.30;;;;;;5058302;28;20244;-53
2021/12/29 07:27:00;;;;;;;1.15;0.30;;;15.00;25.40;;;;;;5058055;28;20305;-53
2021/12/29 07:29:27;;;;;;;0.75;0.28;;;14.90;25.20;;;;;;5057813;28;20236;-53
2021/12/29 07:31:57;;;;;;;0.30;0.20;;;14.90;25.10;;;;;;5057797;28;20200;-53
2021/12/29 07:34:25;;;;;;;0.57;0.30;;;14.90;25.00;;;;;;5057577;28;20339;-53
2021/12/29 07:36:52;;;;;;;1.05;0.35;;;14.90;25.00;;;;;;5058161;28;20204;-53
2021/12/29 07:39:19;;;;;;;0.28;0.22;;;14.90;25.60;;;;;;5057611;28;20208;-53
2021/12/29 07:41:47;;;;;;;0.47;0.35;;;14.90;25.00;;;;;;5057224;28;20484;-53
2021/12/29 07:44:17;;;;;;;0.82;0.50;;;14.90;25.00;;;;;;5057225;28;20204;-53
2021/12/29 07:46:46;;;;;;;1.50;0.40;;;14.90;25.00;;;;;;5057157;28;20577;-53
2021/12/29 07:49:14;;;;;;;0.93;0.30;;;14.90;24.90;;;;;;5057133;28;20224;-53
2021/12/29 07:51:41;;;;;;;0.45;0.43;;;14.90;24.90;;;;;;5057880;28;20212;-52
2021/12/29 07:54:09;;;;;;;0.20;0.20;;;14.90;25.00;;;;;;5057847;28;20204;-52
2021/12/29 07:56:36;;;;;;;0.20;0.20;;;14.90;24.90;;;;;;5057677;28;20723;-52
2021/12/29 07:59:03;;;;;;;0.50;0.30;;;14.90;24.90;;;;;;5056618;28;20207;-52
2021/12/29 08:01:32;;;;;;;0.35;0.30;;;14.80;24.80;;;;;;5057378;28;20245;-53
2021/12/29 08:04:01;;;;;;;0.80;0.30;;;14.80;24.90;;;;;;5057003;28;20280;-52
2021/12/29 08:06:28;;;;;;;0.95;0.30;;;14.80;24.80;;;;;;5057338;28;20205;-52
2021/12/29 08:08:55;;;;;;;0.50;0.30;;;14.80;24.80;;;;;;5056384;28;20643;-52
2021/12/29 08:11:23;;;;;;;0.30;0.30;;;14.80;24.90;;;;;;5057229;28;20212;-52
2021/12/29 08:13:50;;;;;;;0.75;0.30;;;14.80;24.90;;;;;;5057299;28;20201;-53
2021/12/29 08:16:18;;;;;;;0.50;0.40;;;14.80;25.20;;;;;;5057009;28;20270;-52
2021/12/29 08:18:46;;;;;;;0.35;0.30;;;14.80;24.90;;;;;;5056970;28;20220;-52
2021/12/29 08:21:13;;;;;;;0.43;0.30;;;14.80;24.90;;;;;;5056913;28;20216;-52
2021/12/29 08:23:41;;;;;;;0.40;0.40;;;14.80;24.90;;;;;;5057318;28;20204;-52
2021/12/29 08:26:08;;;;;;;1.00;0.30;;;14.80;24.90;;;;;;5056350;28;20205;-52
2021/12/29 08:28:36;;;;;;;0.40;0.40;;;14.80;24.90;;;;;;5056478;28;20492;-52
2021/12/29 08:31:04;;;;;;;0.40;0.38;;;14.80;24.90;;;;;;5056274;28;20216;-52
2021/12/29 08:33:31;;;;;;;0.65;0.40;;;14.70;24.90;;;;;;5052784;28;20208;-53
2021/12/29 08:35:59;;;;;;;1.20;0.30;;;14.70;24.90;;;;;;5043196;28;20201;-53
2021/12/29 08:38:26;;;;;;;0.22;0.22;;;14.80;24.90;;;;;;5055649;28;20205;-52
2021/12/29 08:40:53;;;;;;;0.40;0.40;;;14.70;24.90;;;;;;5056213;28;20201;-52
2021/12/29 08:43:21;;;;;;;0.32;0.30;;;14.70;24.90;;;;;;5055970;28;20615;-53
2021/12/29 08:45:48;;;;;;;0.47;0.30;;;14.70;24.90;;;;;;5056282;28;20205;-52
2021/12/29 08:48:16;;;;;;;0.47;0.38;;;14.70;24.90;;;;;;5055789;28;20209;-52
2021/12/29 08:50:43;;;;;;;0.63;0.45;;;14.70;24.90;;;;;;5055929;28;20216;-52
2021/12/29 08:53:13;;;;;;;1.02;0.50;;;14.70;24.90;;;;;;5056320;28;20457;-52
2021/12/29 08:55:46;;;;;;;0.63;0.30;;;14.70;24.90;;;;;;5055106;28;20228;-52
2021/12/29 08:58:14;;;;;;;0.40;0.40;;;14.70;24.90;;;;;;5055566;28;20217;-52
2021/12/29 09:00:41;;;;;;;0.45;0.40;;;14.70;25.00;;;;;;5055929;28;20211;-52
2021/12/29 09:03:08;;;;;;;0.30;0.30;;;14.70;25.00;;;;;;5055483;28;20450;-52
2021/12/29 09:05:36;;;;;;;0.30;0.30;;;14.70;25.00;;;;;;5055253;28;20193;-52
2021/12/29 09:08:04;;;;;;;0.20;0.20;;;14.70;25.00;;;;;;5056011;28;20208;-52
2021/12/29 09:10:33;;;;;;;0.60;0.38;;;14.70;25.00;;;;;;5055173;28;20237;-52
2021/12/29 09:13:00;;;;;;;0.30;0.30;;;14.70;25.10;;;;;;5055456;28;20201;-52
2021/12/29 09:15:28;;;;;;;0.32;0.32;;;14.70;25.00;;;;;;5055441;28;20630;-52
2021/12/29 09:17:55;;;;;;;0.65;0.30;;;14.70;25.10;;;;;;5055919;28;20205;-52
2021/12/29 09:20:27;;;;;;;0.35;0.35;;;14.70;25.10;;;;;;5055485;28;20522;-52
2021/12/29 09:22:56;;;;;;;0.30;0.30;;;14.70;25.10;;;;;;5055717;28;20595;-53
2021/12/29 09:25:24;;;;;;;0.32;0.30;;;14.70;25.10;;;;;;5055075;28;20211;-53
2021/12/29 09:27:53;;;;;;;0.20;0.20;;;14.70;25.10;;;;;;5055284;28;20216;-52
2021/12/29 09:30:21;;;;;;;0.28;0.28;;;14.70;25.20;;;;;;5055069;28;20224;-53
2021/12/29 09:32:48;;;;;;;0.20;0.20;;;14.70;25.20;;;;;;5054851;28;20226;-52
2021/12/29 09:35:16;;;;;;;0.30;0.30;;;14.70;25.20;;;;;;5055252;28;20231;-52
2021/12/29 09:37:44;;;;;;;0.50;0.45;;;14.70;25.20;;;;;;5054904;28;20212;-52
2021/12/29 09:40:13;;;;;;;0.57;0.20;;;14.70;25.20;;;;;;5054871;28;20208;-53
2021/12/29 09:42:40;;;;;;;0.30;0.25;;;14.60;25.20;;;;;;5054769;28;20209;-52
2021/12/29 09:45:11;;;;;;;0.20;0.20;;;14.60;25.20;;;;;;5054246;28;20613;-52
2021/12/29 09:47:38;;;;;;;0.40;0.40;;;14.60;25.20;;;;;;5056302;28;20247;-52
2021/12/29 09:50:08;;;;;;;0.40;0.40;;;14.60;25.30;;;;;;5058514;28;20228;-52
2021/12/29 09:52:35;;;;;;;0.45;0.38;;;14.70;25.30;;;;;;5058418;28;20205;-53
2021/12/29 09:55:06;;;;;;;0.38;0.30;;;14.60;25.30;;;;;;5058138;28;20205;-52
2021/12/29 09:57:35;;;;;;;0.30;0.30;;;14.60;25.30;;;;;;5057880;28;20216;-52
2021/12/29 10:00:03;;;;;;;0.20;0.20;;;14.60;25.40;;;;;;5057906;28;20236;-52
2021/12/29 10:02:31;;;;;;;0.30;0.30;;;14.60;25.40;;;;;;5057881;28;20209;-53
2021/12/29 10:04:59;;;;;;;0.50;0.30;;;14.60;25.40;;;;;;5057953;28;20205;-53
2021/12/29 10:07:26;;;;;;;0.30;0.30;;;14.60;25.40;;;;;;5057986;28;20213;-52
2021/12/29 10:09:54;;;;;;;0.30;0.30;;;14.60;25.40;;;;;;5057899;28;20247;-52
2021/12/29 10:12:22;;;;;;;0.50;0.35;;;14.60;25.40;;;;;;5058064;28;20205;-52
2021/12/29 10:14:51;;;;;;;0.30;0.30;;;14.60;25.40;;;;;;5058260;28;20291;-52
2021/12/29 10:17:21;;;;;;;0.47;0.30;;;14.60;25.40;;;;;;5056876;28;20205;-52
2021/12/29 10:20:01;;;;;;;0.40;0.30;;;14.60;25.50;;;;;;5057184;28;20201;-52
2021/12/29 10:22:29;;;;;;;0.30;0.30;;;14.60;25.50;;;;;;5057983;28;20204;-52
2021/12/29 10:25:08;;;;;;;0.43;0.30;;;14.60;25.60;;;;;;5057443;28;20448;-52
2021/12/29 10:27:36;;;;;;;0.30;0.30;;;14.60;25.50;;;;;;5054272;28;20818;-52
2021/12/29 10:30:18;;;;;;;0.25;0.25;;;14.60;25.60;;;;;;5057393;28;20473;-52
2021/12/29 10:32:46;;;;;;;0.32;0.28;;;14.60;25.60;;;;;;5057659;28;20786;-52
2021/12/29 10:35:24;;;;;;;0.40;0.32;;;14.60;25.60;;;;;;5057852;28;20232;-52
2021/12/29 10:37:53;;;;;;;0.25;0.20;;;14.60;25.60;;;;;;5058005;28;20209;-52
2021/12/29 10:40:29;;;;;;;1.20;0.20;;;14.60;25.70;;;;;;5057358;28;20224;-52
2021/12/29 10:42:58;;;;;;;0.20;0.20;;;14.60;25.70;;;;;;5057453;28;20212;-53
2021/12/29 10:45:33;;;;;;;0.38;0.38;;;14.50;25.60;;;;;;5057413;28;20227;-53
2021/12/29 10:48:01;;;;;;;0.40;0.20;;;14.60;25.70;;;;;;5057564;28;20204;-53
2021/12/29 10:50:30;;;;;;;0.50;0.30;;;14.60;25.80;;;;;;5057804;28;20233;-53
2021/12/29 10:52:58;;;;;;;0.57;0.30;;;14.50;25.70;;;;;;5056449;28;20232;-53
2021/12/29 10:55:32;;;;;;;0.30;0.20;;;14.50;25.70;;;;;;5057044;28;20205;-53
2021/12/29 10:58:04;;;;;;;1.77;0.30;;;14.50;25.80;;;;;;5056873;28;20323;-53
2021/12/29 11:00:32;;;;;;;2.25;0.43;;;14.50;25.80;;;;;;5056939;28;20208;-53
2021/12/29 11:03:12;;;;;;;0.75;0.40;;;14.50;25.80;;;;;;5056795;28;20284;-53
2021/12/29 11:05:47;;;;;;;0.50;0.30;;;14.50;25.80;;;;;;5055537;28;20196;-53
2021/12/29 11:08:15;;;;;;;0.95;0.50;;;14.50;25.90;;;;;;5055480;28;20310;-53
2021/12/29 11:10:43;;;;;;;0.55;0.20;;;14.50;25.90;;;;;;5055901;28;20671;-53
2021/12/29 11:13:12;;;;;;;0.75;0.40;;;14.50;25.90;;;;;;5056304;28;20283;-52
2021/12/29 11:15:41;;;;;;;0.35;0.35;;;14.50;25.90;;;;;;5056970;28;20205;-52
2021/12/29 11:18:11;;;;;;;0.70;0.40;;;14.50;26.00;;;;;;5056422;28;20204;-52
2021/12/29 11:20:40;;;;;;;0.93;0.30;;;14.50;25.90;;;;;;5055299;28;20205;-52
2021/12/29 11:23:10;;;;;;;1.10;0.30;;;14.50;26.00;;;;;;5056102;28;20216;-52
2021/12/29 11:25:39;;;;;;;1.38;0.50;;;14.50;26.30;;;;;;5056313;28;20204;-52
2021/12/29 11:28:07;;;;;;;0.50;0.40;;;14.50;26.00;;;;;;5055718;28;20611;-53
2021/12/29 11:30:40;;;;;;;0.75;0.40;;;14.50;26.10;;;;;;5055689;28;20229;-53
2021/12/29 11:33:10;;;;;;;0.63;0.40;;;14.50;26.10;;;;;;5055803;28;20224;-53
2021/12/29 11:35:43;;;;;;;0.70;0.30;;;14.50;26.10;;;;;;5055752;28;20343;-53
2021/12/29 11:38:11;;;;;;;0.35;0.30;;;14.50;26.10;;;;;;5055777;28;20679;-53
2021/12/29 11:40:40;;;;;;;0.90;0.63;;;14.50;26.10;;;;;;5056333;28;20201;-53
2021/12/29 11:43:11;;;;;;;0.40;0.30;;;14.50;26.10;;;;;;5052493;28;20205;-53
2021/12/29 11:45:44;;;;;;;0.40;0.30;;;14.50;26.10;;;;;;5035991;28;20230;-53
2021/12/29 11:48:13;;;;;;;0.85;0.30;;;14.50;26.20;;;;;;5047538;28;20211;-53
2021/12/29 11:50:48;;;;;;;0.47;0.30;;;14.50;26.20;;;;;;5055460;28;20290;-53
2021/12/29 11:53:38;;;;;;;0.30;0.30;;;14.50;26.20;;;;;;5055573;28;20208;-53
2021/12/29 11:56:08;;;;;;;0.82;0.40;;;14.50;26.20;;;;;;5055897;28;20209;-53
2021/12/29 11:58:41;;;;;;;1.35;0.35;;;14.40;26.10;;;;;;5055999;28;20244;-53
2021/12/29 12:01:10;;;;;;;0.98;0.30;;;14.50;26.30;;;;;;5055053;28;20291;-52
2021/12/29 12:03:43;;;;;;;0.88;0.30;;;14.50;26.20;;;;;;5054381;28;20620;-53
2021/12/29 12:06:23;;;;;;;1.25;0.30;;;14.50;26.30;;;;;;5055814;28;20200;-52
2021/12/29 12:09:00;;;;;;;0.93;0.30;;;14.50;26.30;;;;;;5055284;28;20204;-53
2021/12/29 12:11:29;;;;;;;0.75;0.40;;;14.50;26.40;;;;;;5054625;28;20239;-53
2021/12/29 12:13:56;;;;;;;1.88;0.30;;;14.40;26.30;;;;;;5055067;28;20207;-53
2021/12/29 12:16:26;;;;;;;1.25;0.30;;;14.40;26.30;;;;;;5055536;28;20212;-53
2021/12/29 12:18:54;;;;;;;0.30;0.30;;;14.50;26.40;;;;;;5055694;28;20674;-53
2021/12/29 12:21:29;;;;;;;2.53;0.50;;;14.40;26.40;;;;;;5054887;28;20220;-53
2021/12/29 12:24:10;;;;;;;0.57;0.30;;;14.40;26.30;;;;;;5054554;28;20724;-53
2021/12/29 12:26:48;;;;;;;0.68;0.55;;;14.40;26.30;;;;;;5054772;28;20200;-53
2021/12/29 12:29:15;;;;;;;0.65;0.45;;;14.40;26.30;;;;;;5054986;28;20205;-53
2021/12/29 12:31:42;;;;;;;0.57;0.40;;;14.40;26.20;;;;;;5055107;28;20639;-53
2021/12/29 12:34:12;;;;;;;2.05;0.57;;;14.40;26.20;;;;;;5055440;28;20500;-53
2021/12/29 12:36:42;;;;;;;0.40;0.40;;;14.40;26.80;;;;;;5054396;28;20212;-53
2021/12/29 12:39:12;;;;;;;0.68;0.50;;;14.40;26.10;;;;;;5054931;28;20712;-53
2021/12/29 12:41:41;;;;;;;0.60;0.60;;;14.40;26.10;;;;;;5054520;28;20201;-53
2021/12/29 12:44:09;;;;;;;0.57;0.55;;;14.40;26.10;;;;;;5054491;28;20216;-53
2021/12/29 12:46:38;;;;;;;0.60;0.60;;;14.40;26.20;;;;;;5054469;28;20205;-53
2021/12/29 12:49:17;;;;;;;0.93;0.70;;;14.40;26.30;;;;;;5054284;28;20216;-53
2021/12/29 12:51:56;;;;;;;2.03;0.80;;;14.50;26.40;;;;;;5053397;28;20607;-53
2021/12/29 12:54:27;;;;;;;1.48;0.70;;;14.40;26.40;;;;;;5054985;28;20212;-53
2021/12/29 12:56:56;;;;;;;1.63;0.82;;;14.50;26.50;;;;;;5054741;28;20239;-53
2021/12/29 12:59:35;;;;;;;0.80;0.57;;;14.50;26.50;;;;;;5054013;28;20262;-53